sensor_id;sensor_type;location;lat;lon;timestamp;temperature;humidity
975;DHT22;6115;49.296;10.602;2023-05-08T00:03:48;16.60;52.40
975;DHT22;6115;49.296;10.602;2023-05-08T00:08:50;16.40;52.50
975;DHT22;6115;49.296;10.602;2023-05-08T00:13:51;16.40;52.60
975;DHT22;6115;49.296;10.602;2023-05-08T00:18:52;16.30;52.50
975;DHT22;6115;49.296;10.602;2023-05-08T00:23:53;16.30;52.30
975;DHT22;6115;49.296;10.602;2023-05-08T00:28:54;16.10;52.30
975;DHT22;6115;49.296;10.602;2023-05-08T00:33:54;16.10;52.10
975;DHT22;6115;49.296;10.602;2023-05-08T00:38:55;16.10;52.40
975;DHT22;6115;49.296;10.602;2023-05-08T00:43:55;16.00;52.70
975;DHT22;6115;49.296;10.602;2023-05-08T00:48:56;15.90;52.70
975;DHT22;6115;49.296;10.602;2023-05-08T00:53:58;15.90;52.70
975;DHT22;6115;49.296;10.602;2023-05-08T00:58:59;15.80;52.70
975;DHT22;6115;49.296;10.602;2023-05-08T01:04:02;15.80;52.30
975;DHT22;6115;49.296;10.602;2023-05-08T01:09:03;15.70;52.60
975;DHT22;6115;49.296;10.602;2023-05-08T01:35:54;15.00;55.00
975;DHT22;6115;49.296;10.602;2023-05-08T01:41:11;14.90;55.60
975;DHT22;6115;49.296;10.602;2023-05-08T01:46:17;15.00;55.70
975;DHT22;6115;49.296;10.602;2023-05-08T01:51:21;15.00;56.60
975;DHT22;6115;49.296;10.602;2023-05-08T01:56:23;14.90;57.00
975;DHT22;6115;49.296;10.602;2023-05-08T02:01:25;14.90;57.30
975;DHT22;6115;49.296;10.602;2023-05-08T02:06:30;14.80;57.30
975;DHT22;6115;49.296;10.602;2023-05-08T02:11:32;14.70;57.70
975;DHT22;6115;49.296;10.602;2023-05-08T02:16:36;14.70;57.20
975;DHT22;6115;49.296;10.602;2023-05-08T02:21:38;14.70;57.70
975;DHT22;6115;49.296;10.602;2023-05-08T02:26:41;14.70;56.70
975;DHT22;6115;49.296;10.602;2023-05-08T02:31:44;14.70;56.90
975;DHT22;6115;49.296;10.602;2023-05-08T02:36:48;14.80;56.90
975;DHT22;6115;49.296;10.602;2023-05-08T02:41:49;14.70;56.90
975;DHT22;6115;49.296;10.602;2023-05-08T02:47:17;14.70;57.80
975;DHT22;6115;49.296;10.602;2023-05-08T02:52:27;14.60;58.80
975;DHT22;6115;49.296;10.602;2023-05-08T03:02:43;14.30;61.50
975;DHT22;6115;49.296;10.602;2023-05-08T03:07:50;14.10;63.20
975;DHT22;6115;49.296;10.602;2023-05-08T03:12:53;13.90;64.80
975;DHT22;6115;49.296;10.602;2023-05-08T03:17:57;13.70;66.20
975;DHT22;6115;49.296;10.602;2023-05-08T03:23:02;13.50;67.60
975;DHT22;6115;49.296;10.602;2023-05-08T03:28:04;13.40;68.70
975;DHT22;6115;49.296;10.602;2023-05-08T03:33:06;13.20;69.50
975;DHT22;6115;49.296;10.602;2023-05-08T03:38:07;13.00;70.40
975;DHT22;6115;49.296;10.602;2023-05-08T03:43:08;12.90;71.60
975;DHT22;6115;49.296;10.602;2023-05-08T03:48:10;12.80;72.50
975;DHT22;6115;49.296;10.602;2023-05-08T03:53:12;12.70;74.20
975;DHT22;6115;49.296;10.602;2023-05-08T04:03:36;12.60;76.10
975;DHT22;6115;49.296;10.602;2023-05-08T04:08:47;12.60;76.60
975;DHT22;6115;49.296;10.602;2023-05-08T04:13:49;12.60;76.50
975;DHT22;6115;49.296;10.602;2023-05-08T04:19:01;12.60;76.80
975;DHT22;6115;49.296;10.602;2023-05-08T04:24:03;12.50;77.20
975;DHT22;6115;49.296;10.602;2023-05-08T04:29:06;12.40;77.70
975;DHT22;6115;49.296;10.602;2023-05-08T04:34:07;12.50;78.10
975;DHT22;6115;49.296;10.602;2023-05-08T04:39:09;12.40;78.50
975;DHT22;6115;49.296;10.602;2023-05-08T04:44:10;12.30;78.50
975;DHT22;6115;49.296;10.602;2023-05-08T04:49:10;12.30;78.60
975;DHT22;6115;49.296;10.602;2023-05-08T04:54:11;12.20;78.60
975;DHT22;6115;49.296;10.602;2023-05-08T04:59:11;12.20;79.00
975;DHT22;6115;49.296;10.602;2023-05-08T05:04:12;12.20;79.50
975;DHT22;6115;49.296;10.602;2023-05-08T05:09:13;12.10;79.60
975;DHT22;6115;49.296;10.602;2023-05-08T05:14:13;12.10;80.00
975;DHT22;6115;49.296;10.602;2023-05-08T05:19:14;12.10;80.20
975;DHT22;6115;49.296;10.602;2023-05-08T05:24:14;12.00;80.70
975;DHT22;6115;49.296;10.602;2023-05-08T05:29:15;11.90;80.70
975;DHT22;6115;49.296;10.602;2023-05-08T05:34:15;11.90;80.60
975;DHT22;6115;49.296;10.602;2023-05-08T05:39:16;12.00;81.00
975;DHT22;6115;49.296;10.602;2023-05-08T05:44:17;12.10;81.10
975;DHT22;6115;49.296;10.602;2023-05-08T05:49:17;12.10;80.80
975;DHT22;6115;49.296;10.602;2023-05-08T05:54:18;12.10;80.80
975;DHT22;6115;49.296;10.602;2023-05-08T05:59:18;12.20;81.00
975;DHT22;6115;49.296;10.602;2023-05-08T06:04:19;12.20;81.00
975;DHT22;6115;49.296;10.602;2023-05-08T06:09:19;12.20;80.90
975;DHT22;6115;49.296;10.602;2023-05-08T06:14:20;12.20;80.40
975;DHT22;6115;49.296;10.602;2023-05-08T06:19:20;12.30;81.00
975;DHT22;6115;49.296;10.602;2023-05-08T06:24:23;12.30;79.90
975;DHT22;6115;49.296;10.602;2023-05-08T06:29:24;12.30;79.70
975;DHT22;6115;49.296;10.602;2023-05-08T06:34:24;12.30;80.30
975;DHT22;6115;49.296;10.602;2023-05-08T06:39:25;12.40;80.80
975;DHT22;6115;49.296;10.602;2023-05-08T06:44:25;12.50;80.00
975;DHT22;6115;49.296;10.602;2023-05-08T06:49:26;12.60;80.00
975;DHT22;6115;49.296;10.602;2023-05-08T06:54:27;12.70;80.00
975;DHT22;6115;49.296;10.602;2023-05-08T06:59:27;12.80;79.10
975;DHT22;6115;49.296;10.602;2023-05-08T07:04:28;12.90;79.30
975;DHT22;6115;49.296;10.602;2023-05-08T07:09:28;12.90;78.80
975;DHT22;6115;49.296;10.602;2023-05-08T07:14:29;13.00;78.60
975;DHT22;6115;49.296;10.602;2023-05-08T07:19:29;13.10;78.10
975;DHT22;6115;49.296;10.602;2023-05-08T07:24:31;13.20;78.20
975;DHT22;6115;49.296;10.602;2023-05-08T07:29:32;13.50;78.80
975;DHT22;6115;49.296;10.602;2023-05-08T07:34:35;13.70;77.60
975;DHT22;6115;49.296;10.602;2023-05-08T07:39:35;13.90;77.40
975;DHT22;6115;49.296;10.602;2023-05-08T07:44:37;13.90;74.90
975;DHT22;6115;49.296;10.602;2023-05-08T07:49:37;14.00;75.60
975;DHT22;6115;49.296;10.602;2023-05-08T07:54:38;14.10;75.50
975;DHT22;6115;49.296;10.602;2023-05-08T07:59:38;14.40;75.30
975;DHT22;6115;49.296;10.602;2023-05-08T08:04:39;14.50;73.60
975;DHT22;6115;49.296;10.602;2023-05-08T08:09:40;14.60;72.40
975;DHT22;6115;49.296;10.602;2023-05-08T08:14:40;14.60;71.20
975;DHT22;6115;49.296;10.602;2023-05-08T08:19:41;14.90;71.60
975;DHT22;6115;49.296;10.602;2023-05-08T08:24:41;15.10;70.60
975;DHT22;6115;49.296;10.602;2023-05-08T08:29:42;15.30;70.50
975;DHT22;6115;49.296;10.602;2023-05-08T08:34:42;15.50;69.60
975;DHT22;6115;49.296;10.602;2023-05-08T08:39:43;15.50;68.10
975;DHT22;6115;49.296;10.602;2023-05-08T08:44:43;15.60;68.80
975;DHT22;6115;49.296;10.602;2023-05-08T08:49:47;15.50;67.00
975;DHT22;6115;49.296;10.602;2023-05-08T08:54:50;15.50;68.30
975;DHT22;6115;49.296;10.602;2023-05-08T08:59:52;15.50;67.40
975;DHT22;6115;49.296;10.602;2023-05-08T09:04:53;15.40;67.10
975;DHT22;6115;49.296;10.602;2023-05-08T09:09:54;15.40;66.70
975;DHT22;6115;49.296;10.602;2023-05-08T09:14:54;15.40;66.40
975;DHT22;6115;49.296;10.602;2023-05-08T09:19:55;15.40;67.00
975;DHT22;6115;49.296;10.602;2023-05-08T09:24:57;15.60;67.40
975;DHT22;6115;49.296;10.602;2023-05-08T09:30:06;15.70;66.20
975;DHT22;6115;49.296;10.602;2023-05-08T09:35:08;15.80;66.30
975;DHT22;6115;49.296;10.602;2023-05-08T09:45:30;16.30;65.40
975;DHT22;6115;49.296;10.602;2023-05-08T09:50:31;16.50;64.90
975;DHT22;6115;49.296;10.602;2023-05-08T09:55:45;16.50;62.90
975;DHT22;6115;49.296;10.602;2023-05-08T10:00:46;16.80;62.60
975;DHT22;6115;49.296;10.602;2023-05-08T10:05:47;17.10;61.20
975;DHT22;6115;49.296;10.602;2023-05-08T10:10:48;17.00;60.10
975;DHT22;6115;49.296;10.602;2023-05-08T10:15:52;17.20;60.90
975;DHT22;6115;49.296;10.602;2023-05-08T10:20:54;16.90;59.10
975;DHT22;6115;49.296;10.602;2023-05-08T10:26:02;17.20;60.80
975;DHT22;6115;49.296;10.602;2023-05-08T10:31:08;17.40;59.20
975;DHT22;6115;49.296;10.602;2023-05-08T10:36:11;17.40;60.80
975;DHT22;6115;49.296;10.602;2023-05-08T10:41:12;17.40;59.70
975;DHT22;6115;49.296;10.602;2023-05-08T10:51:54;17.60;59.20
975;DHT22;6115;49.296;10.602;2023-05-08T10:57:10;17.90;58.20
975;DHT22;6115;49.296;10.602;2023-05-08T11:02:10;17.90;57.20
975;DHT22;6115;49.296;10.602;2023-05-08T11:07:11;18.40;57.60
975;DHT22;6115;49.296;10.602;2023-05-08T11:12:27;18.50;56.30
975;DHT22;6115;49.296;10.602;2023-05-08T11:17:28;18.30;55.80
975;DHT22;6115;49.296;10.602;2023-05-08T11:22:33;18.40;56.30
975;DHT22;6115;49.296;10.602;2023-05-08T11:38:26;19.30;56.20
975;DHT22;6115;49.296;10.602;2023-05-08T11:48:34;19.70;54.00
975;DHT22;6115;49.296;10.602;2023-05-08T11:53:36;19.60;55.20
975;DHT22;6115;49.296;10.602;2023-05-08T11:58:36;19.30;53.40
975;DHT22;6115;49.296;10.602;2023-05-08T12:03:37;19.40;53.60
975;DHT22;6115;49.296;10.602;2023-05-08T12:08:38;19.40;53.70
975;DHT22;6115;49.296;10.602;2023-05-08T12:13:38;19.20;53.90
975;DHT22;6115;49.296;10.602;2023-05-08T12:18:39;19.20;53.90
975;DHT22;6115;49.296;10.602;2023-05-08T12:23:41;19.10;53.80
975;DHT22;6115;49.296;10.602;2023-05-08T12:28:44;18.80;55.10
975;DHT22;6115;49.296;10.602;2023-05-08T12:33:46;18.70;55.70
975;DHT22;6115;49.296;10.602;2023-05-08T12:38:46;18.80;57.20
975;DHT22;6115;49.296;10.602;2023-05-08T12:43:47;18.70;58.60
975;DHT22;6115;49.296;10.602;2023-05-08T12:48:48;18.80;58.50
975;DHT22;6115;49.296;10.602;2023-05-08T12:53:49;19.00;58.20
975;DHT22;6115;49.296;10.602;2023-05-08T12:58:51;19.10;58.30
975;DHT22;6115;49.296;10.602;2023-05-08T13:03:52;19.40;57.80
975;DHT22;6115;49.296;10.602;2023-05-08T13:08:54;19.30;57.40
975;DHT22;6115;49.296;10.602;2023-05-08T13:13:54;19.40;58.50
975;DHT22;6115;49.296;10.602;2023-05-08T13:18:55;19.20;58.00
975;DHT22;6115;49.296;10.602;2023-05-08T13:23:55;19.30;56.60
975;DHT22;6115;49.296;10.602;2023-05-08T13:28:56;19.20;57.10
975;DHT22;6115;49.296;10.602;2023-05-08T13:33:56;19.00;58.20
975;DHT22;6115;49.296;10.602;2023-05-08T13:38:57;19.20;56.70
975;DHT22;6115;49.296;10.602;2023-05-08T13:43:58;19.30;55.10
975;DHT22;6115;49.296;10.602;2023-05-08T13:49:00;19.20;55.60
975;DHT22;6115;49.296;10.602;2023-05-08T13:54:00;18.90;56.80
975;DHT22;6115;49.296;10.602;2023-05-08T13:59:01;19.10;55.90
975;DHT22;6115;49.296;10.602;2023-05-08T14:04:01;19.10;56.20
975;DHT22;6115;49.296;10.602;2023-05-08T14:09:02;19.00;57.10
975;DHT22;6115;49.296;10.602;2023-05-08T14:14:02;19.10;57.00
975;DHT22;6115;49.296;10.602;2023-05-08T14:19:03;19.20;54.70
975;DHT22;6115;49.296;10.602;2023-05-08T14:24:04;19.30;54.90
975;DHT22;6115;49.296;10.602;2023-05-08T14:29:04;19.20;54.20
975;DHT22;6115;49.296;10.602;2023-05-08T14:34:05;19.20;53.90
975;DHT22;6115;49.296;10.602;2023-05-08T14:39:05;19.10;53.80
975;DHT22;6115;49.296;10.602;2023-05-08T14:44:06;19.00;53.70
975;DHT22;6115;49.296;10.602;2023-05-08T14:49:07;18.90;53.60
975;DHT22;6115;49.296;10.602;2023-05-08T14:54:07;18.80;53.50
975;DHT22;6115;49.296;10.602;2023-05-08T14:59:08;18.90;53.30
975;DHT22;6115;49.296;10.602;2023-05-08T15:04:10;18.80;53.50
975;DHT22;6115;49.296;10.602;2023-05-08T15:09:10;18.70;53.40
975;DHT22;6115;49.296;10.602;2023-05-08T15:14:11;18.70;53.40
975;DHT22;6115;49.296;10.602;2023-05-08T15:19:12;18.80;53.50
975;DHT22;6115;49.296;10.602;2023-05-08T15:24:13;18.70;53.40
975;DHT22;6115;49.296;10.602;2023-05-08T15:29:13;18.60;54.20
975;DHT22;6115;49.296;10.602;2023-05-08T15:34:14;18.60;54.10
975;DHT22;6115;49.296;10.602;2023-05-08T15:39:14;18.50;54.60
975;DHT22;6115;49.296;10.602;2023-05-08T15:44:17;18.50;55.40
975;DHT22;6115;49.296;10.602;2023-05-08T15:49:18;18.50;55.70
975;DHT22;6115;49.296;10.602;2023-05-08T15:54:19;18.60;55.30
975;DHT22;6115;49.296;10.602;2023-05-08T15:59:19;18.60;56.40
975;DHT22;6115;49.296;10.602;2023-05-08T16:04:20;18.60;56.60
975;DHT22;6115;49.296;10.602;2023-05-08T16:09:21;18.40;57.20
975;DHT22;6115;49.296;10.602;2023-05-08T16:14:22;18.40;56.80
975;DHT22;6115;49.296;10.602;2023-05-08T16:19:23;18.40;57.70
975;DHT22;6115;49.296;10.602;2023-05-08T16:24:23;18.40;57.30
975;DHT22;6115;49.296;10.602;2023-05-08T16:29:25;18.50;57.20
975;DHT22;6115;49.296;10.602;2023-05-08T16:34:25;18.40;57.70
975;DHT22;6115;49.296;10.602;2023-05-08T16:39:26;18.40;56.80
975;DHT22;6115;49.296;10.602;2023-05-08T16:44:27;18.30;56.30
975;DHT22;6115;49.296;10.602;2023-05-08T16:49:27;18.20;57.50
975;DHT22;6115;49.296;10.602;2023-05-08T16:54:28;18.10;55.90
975;DHT22;6115;49.296;10.602;2023-05-08T16:59:28;18.20;56.40
975;DHT22;6115;49.296;10.602;2023-05-08T17:04:29;18.20;55.80
975;DHT22;6115;49.296;10.602;2023-05-08T17:09:29;18.20;56.80
975;DHT22;6115;49.296;10.602;2023-05-08T17:14:30;18.40;56.90
975;DHT22;6115;49.296;10.602;2023-05-08T17:19:31;18.40;55.90
975;DHT22;6115;49.296;10.602;2023-05-08T17:24:31;18.40;55.50
975;DHT22;6115;49.296;10.602;2023-05-08T17:29:33;18.50;56.00
975;DHT22;6115;49.296;10.602;2023-05-08T17:34:34;18.20;58.10
975;DHT22;6115;49.296;10.602;2023-05-08T17:39:34;18.20;59.30
975;DHT22;6115;49.296;10.602;2023-05-08T17:44:35;18.00;59.60
975;DHT22;6115;49.296;10.602;2023-05-08T17:49:36;17.90;60.40
975;DHT22;6115;49.296;10.602;2023-05-08T17:54:36;17.90;60.60
975;DHT22;6115;49.296;10.602;2023-05-08T17:59:37;17.90;59.60
975;DHT22;6115;49.296;10.602;2023-05-08T18:04:37;17.90;59.40
975;DHT22;6115;49.296;10.602;2023-05-08T18:09:38;17.90;59.50
975;DHT22;6115;49.296;10.602;2023-05-08T18:14:38;17.80;59.80
975;DHT22;6115;49.296;10.602;2023-05-08T18:19:39;17.80;61.50
975;DHT22;6115;49.296;10.602;2023-05-08T18:24:39;17.70;61.80
975;DHT22;6115;49.296;10.602;2023-05-08T18:29:40;17.60;62.20
975;DHT22;6115;49.296;10.602;2023-05-08T18:34:40;17.50;62.80
975;DHT22;6115;49.296;10.602;2023-05-08T18:39:41;17.40;64.00
975;DHT22;6115;49.296;10.602;2023-05-08T18:44:41;17.40;65.90
975;DHT22;6115;49.296;10.602;2023-05-08T18:49:43;17.20;66.30
975;DHT22;6115;49.296;10.602;2023-05-08T18:54:44;16.90;68.00
975;DHT22;6115;49.296;10.602;2023-05-08T18:59:44;16.80;69.60
975;DHT22;6115;49.296;10.602;2023-05-08T19:04:47;16.80;69.60
975;DHT22;6115;49.296;10.602;2023-05-08T19:09:48;16.80;69.70
975;DHT22;6115;49.296;10.602;2023-05-08T19:14:48;16.80;70.20
975;DHT22;6115;49.296;10.602;2023-05-08T19:19:50;16.80;71.00
975;DHT22;6115;49.296;10.602;2023-05-08T19:24:51;16.70;70.80
975;DHT22;6115;49.296;10.602;2023-05-08T19:29:52;16.50;71.20
975;DHT22;6115;49.296;10.602;2023-05-08T19:34:53;16.40;72.00
975;DHT22;6115;49.296;10.602;2023-05-08T19:39:56;16.20;72.50
975;DHT22;6115;49.296;10.602;2023-05-08T19:44:57;16.10;73.10
975;DHT22;6115;49.296;10.602;2023-05-08T19:49:57;16.10;73.10
975;DHT22;6115;49.296;10.602;2023-05-08T19:54:58;16.10;73.00
975;DHT22;6115;49.296;10.602;2023-05-08T19:59:58;16.10;73.40
975;DHT22;6115;49.296;10.602;2023-05-08T20:04:59;16.10;73.40
975;DHT22;6115;49.296;10.602;2023-05-08T20:10:00;16.00;74.10
975;DHT22;6115;49.296;10.602;2023-05-08T20:15:00;16.00;74.00
975;DHT22;6115;49.296;10.602;2023-05-08T20:20:01;16.00;74.00
975;DHT22;6115;49.296;10.602;2023-05-08T20:25:01;15.90;73.90
975;DHT22;6115;49.296;10.602;2023-05-08T20:30:02;15.90;74.30
975;DHT22;6115;49.296;10.602;2023-05-08T20:35:03;15.80;74.90
975;DHT22;6115;49.296;10.602;2023-05-08T20:40:04;15.80;74.90
975;DHT22;6115;49.296;10.602;2023-05-08T20:45:06;15.60;75.50
975;DHT22;6115;49.296;10.602;2023-05-08T20:50:07;15.60;76.20
975;DHT22;6115;49.296;10.602;2023-05-08T20:55:08;15.60;75.90
975;DHT22;6115;49.296;10.602;2023-05-08T21:00:08;15.70;75.40
975;DHT22;6115;49.296;10.602;2023-05-08T21:05:10;15.60;74.70
975;DHT22;6115;49.296;10.602;2023-05-08T21:10:10;15.50;74.70
975;DHT22;6115;49.296;10.602;2023-05-08T21:15:11;15.50;74.60
975;DHT22;6115;49.296;10.602;2023-05-08T21:20:12;15.50;74.60
975;DHT22;6115;49.296;10.602;2023-05-08T21:25:12;15.50;74.60
975;DHT22;6115;49.296;10.602;2023-05-08T21:30:14;15.50;73.00
975;DHT22;6115;49.296;10.602;2023-05-08T21:35:15;15.50;71.00
975;DHT22;6115;49.296;10.602;2023-05-08T21:40:16;15.40;69.80
975;DHT22;6115;49.296;10.602;2023-05-08T21:45:17;15.30;71.10
975;DHT22;6115;49.296;10.602;2023-05-08T21:50:17;15.30;71.30
975;DHT22;6115;49.296;10.602;2023-05-08T21:55:20;15.30;71.30
975;DHT22;6115;49.296;10.602;2023-05-08T22:00:21;15.30;71.50
975;DHT22;6115;49.296;10.602;2023-05-08T22:05:22;15.20;70.80
975;DHT22;6115;49.296;10.602;2023-05-08T22:10:23;15.10;70.30
975;DHT22;6115;49.296;10.602;2023-05-08T22:15:25;15.10;69.30
975;DHT22;6115;49.296;10.602;2023-05-08T22:20:25;15.00;69.20
975;DHT22;6115;49.296;10.602;2023-05-08T22:25:26;14.90;69.10
975;DHT22;6115;49.296;10.602;2023-05-08T22:30:27;14.90;69.10
975;DHT22;6115;49.296;10.602;2023-05-08T22:35:28;14.80;68.90
975;DHT22;6115;49.296;10.602;2023-05-08T22:40:29;14.80;69.20
975;DHT22;6115;49.296;10.602;2023-05-08T22:45:31;14.70;69.50
975;DHT22;6115;49.296;10.602;2023-05-08T22:50:31;14.50;69.80
975;DHT22;6115;49.296;10.602;2023-05-08T22:55:32;14.50;70.60
975;DHT22;6115;49.296;10.602;2023-05-08T23:00:33;14.50;71.00
975;DHT22;6115;49.296;10.602;2023-05-08T23:05:33;14.50;71.70
975;DHT22;6115;49.296;10.602;2023-05-08T23:10:34;14.50;71.80
975;DHT22;6115;49.296;10.602;2023-05-08T23:15:35;14.50;72.10
975;DHT22;6115;49.296;10.602;2023-05-08T23:20:36;14.30;73.40
975;DHT22;6115;49.296;10.602;2023-05-08T23:25:37;14.20;73.30
975;DHT22;6115;49.296;10.602;2023-05-08T23:30:37;14.30;73.40
975;DHT22;6115;49.296;10.602;2023-05-08T23:35:38;14.20;73.30
975;DHT22;6115;49.296;10.602;2023-05-08T23:40:38;14.20;73.30
975;DHT22;6115;49.296;10.602;2023-05-08T23:45:39;14.10;73.20
975;DHT22;6115;49.296;10.602;2023-05-08T23:50:39;14.00;73.40
975;DHT22;6115;49.296;10.602;2023-05-08T23:55:41;13.90;73.70
